createdAt,value
2023-03-18T00:00:47.958Z,502.9
2023-03-18T00:01:49.911Z,503.3
2023-03-18T00:02:51.828Z,503.1
2023-03-18T00:03:53.993Z,503.5
2023-03-18T00:04:55.871Z,503.4
2023-03-18T00:05:57.823Z,503.6
2023-03-18T00:06:59.880Z,503.7
2023-03-18T00:08:01.942Z,503.5
2023-03-18T00:09:03.898Z,503.7
2023-03-18T00:10:05.746Z,503.7
2023-03-18T00:11:07.524Z,503.6
2023-03-18T00:12:09.357Z,503.7
2023-03-18T00:13:11.185Z,503.9
2023-03-18T00:14:13.147Z,503.9
2023-03-18T00:15:15.099Z,503.9
2023-03-18T00:16:17.338Z,503.8
2023-03-18T00:17:19.204Z,503.7
2023-03-18T00:18:21.051Z,503.8
2023-03-18T00:19:23.009Z,503.8
2023-03-18T00:20:24.860Z,504
2023-03-18T00:21:26.802Z,503.9
2023-03-18T00:22:28.661Z,504.3
2023-03-18T00:23:30.583Z,504
2023-03-18T00:24:32.461Z,504.3
2023-03-18T00:25:34.314Z,504.3
2023-03-18T00:26:36.165Z,504.6
2023-03-18T00:27:38.255Z,504.7
2023-03-18T00:28:40.076Z,504.6
2023-03-18T00:29:41.915Z,505
2023-03-18T00:30:43.873Z,504.8
2023-03-18T00:31:46.047Z,504.9
2023-03-18T00:32:48.217Z,505.1
2023-03-18T00:33:50.141Z,505.5
2023-03-18T00:34:52.013Z,505.8
2023-03-18T00:35:53.999Z,505.8
2023-03-18T00:36:55.900Z,505.6
2023-03-18T00:37:57.845Z,505.8
2023-03-18T00:38:59.830Z,505.8
2023-03-18T00:40:01.639Z,505.9
2023-03-18T00:41:03.495Z,506.3
2023-03-18T00:42:05.341Z,506.3
2023-03-18T00:43:07.226Z,506.5
2023-03-18T00:44:09.143Z,506.4
2023-03-18T00:45:11.120Z,506.9
2023-03-18T00:46:12.989Z,506.9
2023-03-18T00:47:14.898Z,506.8
2023-03-18T00:48:16.821Z,507.3
2023-03-18T00:49:18.706Z,507.3
2023-03-18T00:50:20.558Z,507.2
2023-03-18T00:51:22.396Z,507.8
2023-03-18T00:52:24.284Z,507.8
2023-03-18T00:53:26.239Z,507.7
2023-03-18T00:54:28.065Z,507.6
2023-03-18T00:55:29.900Z,508.1
2023-03-18T00:56:31.690Z,508.1
2023-03-18T00:57:33.508Z,508.5
2023-03-18T00:58:35.490Z,508.2
2023-03-18T00:59:37.383Z,508.2
2023-03-18T01:00:39.272Z,508.4
2023-03-18T01:01:41.529Z,508.5
2023-03-18T01:02:43.374Z,508.5
2023-03-18T01:03:45.189Z,508.5
2023-03-18T01:04:47.073Z,508.3
2023-03-18T01:05:49.025Z,508.5
2023-03-18T01:06:50.864Z,508.6
2023-03-18T01:07:52.716Z,508.5
2023-03-18T01:08:54.592Z,508.6
2023-03-18T01:09:56.415Z,508.9
2023-03-18T01:10:58.280Z,508.5
2023-03-18T01:12:00.146Z,508.7
2023-03-18T01:13:01.966Z,508.8
2023-03-18T01:14:03.940Z,508.9
2023-03-18T01:15:05.590Z,509
2023-03-18T01:16:07.553Z,508.8
2023-03-18T01:17:09.558Z,509.3
2023-03-18T01:18:11.525Z,509.1
2023-03-18T01:19:13.385Z,509.2
2023-03-18T01:20:15.226Z,509.6
2023-03-18T01:21:17.104Z,509.8
2023-03-18T01:22:18.929Z,509.7
2023-03-18T01:23:20.783Z,510.2
2023-03-18T01:24:22.624Z,509.8
2023-03-18T01:25:24.481Z,510
2023-03-18T01:26:26.528Z,509.9
2023-03-18T01:27:28.466Z,510
2023-03-18T01:28:30.340Z,510.1
2023-03-18T01:29:32.214Z,510.2
2023-03-18T01:30:34.348Z,510.4
2023-03-18T01:31:36.423Z,510.5
2023-03-18T01:32:38.538Z,510.4
2023-03-18T01:33:40.547Z,510.7
2023-03-18T01:34:42.360Z,510.5
2023-03-18T01:35:44.457Z,510.8
2023-03-18T01:36:46.442Z,510.6
2023-03-18T01:37:48.313Z,510.4
2023-03-18T01:38:50.161Z,510.8
2023-03-18T01:39:51.932Z,510.7
2023-03-18T01:40:53.773Z,511
2023-03-18T01:41:55.695Z,511.1
2023-03-18T01:42:57.672Z,510.7
2023-03-18T01:43:59.622Z,510.7
2023-03-18T01:45:01.497Z,510.8
2023-03-18T01:46:03.679Z,511.1
2023-03-18T01:47:05.576Z,510.8
2023-03-18T01:48:07.437Z,510.8
2023-03-18T01:49:09.274Z,510.6
2023-03-18T01:50:11.126Z,510.9
2023-03-18T01:51:13.084Z,510.7
2023-03-18T01:52:15.006Z,510.8
2023-03-18T01:53:16.886Z,510.8
2023-03-18T01:54:18.748Z,510.9
2023-03-18T01:55:20.678Z,511.1
2023-03-18T01:56:22.538Z,511.2
2023-03-18T01:57:24.384Z,511.2
2023-03-18T01:58:26.332Z,511.3
2023-03-18T01:59:28.290Z,511.6
2023-03-18T02:00:31.447Z,511.6
2023-03-18T02:01:33.427Z,511.7
2023-03-18T02:02:35.266Z,511.4
2023-03-18T02:03:37.344Z,511.6
2023-03-18T02:04:39.190Z,511.7
2023-03-18T02:05:41.131Z,511.9
2023-03-18T02:06:43.092Z,512
2023-03-18T02:07:44.938Z,511.8
2023-03-18T02:08:46.780Z,512.3
2023-03-18T02:09:48.717Z,512.1
2023-03-18T02:10:50.694Z,512
2023-03-18T02:11:52.748Z,511.9
2023-03-18T02:12:54.694Z,512
2023-03-18T02:13:56.444Z,511.7
2023-03-18T02:14:58.231Z,512
2023-03-18T02:16:00.275Z,511.9
2023-03-18T02:17:02.456Z,511.9
2023-03-18T02:18:04.254Z,511.7
2023-03-18T02:19:06.204Z,512
2023-03-18T02:20:08.053Z,511.9
2023-03-18T02:21:10.123Z,511.8
2023-03-18T02:22:12.066Z,512
2023-03-18T02:23:13.912Z,511.7
2023-03-18T02:24:15.862Z,511.9
2023-03-18T02:25:17.708Z,511.6
2023-03-18T02:26:19.670Z,511.6
2023-03-18T02:27:21.513Z,511.7
2023-03-18T02:28:23.363Z,511.6
2023-03-18T02:29:25.220Z,511.5
2023-03-18T02:30:27.096Z,511.6
2023-03-18T02:31:29.050Z,511.6
2023-03-18T02:32:31.244Z,511.5
2023-03-18T02:33:33.235Z,511.9
2023-03-18T02:34:35.083Z,511.4
2023-03-18T02:35:37.223Z,511.8
2023-03-18T02:36:39.189Z,511.8
2023-03-18T02:37:41.045Z,511.9
2023-03-18T02:38:42.823Z,511.6
2023-03-18T02:39:44.649Z,511.6
2023-03-18T02:40:46.485Z,511.5
2023-03-18T02:41:48.439Z,511.6
2023-03-18T02:42:50.289Z,511.7
2023-03-18T02:43:52.034Z,511.8
2023-03-18T02:44:53.988Z,511.7
2023-03-18T02:45:56.087Z,512
2023-03-18T02:46:58.122Z,511.8
2023-03-18T02:47:59.953Z,511.8
2023-03-18T02:49:01.897Z,512
2023-03-18T02:50:03.862Z,512.2
2023-03-18T02:51:05.728Z,512.2
2023-03-18T02:52:07.559Z,512.4
2023-03-18T02:53:09.414Z,512.3
2023-03-18T02:54:11.380Z,512.2
2023-03-18T02:55:13.420Z,512.3
2023-03-18T02:56:15.378Z,512.1
2023-03-18T02:57:17.214Z,512.3
2023-03-18T02:58:19.076Z,512.2
2023-03-18T02:59:21.025Z,512.3
2023-03-18T03:00:22.978Z,512.4
2023-03-18T03:01:24.879Z,512.5
2023-03-18T03:02:27.066Z,512.5
2023-03-18T03:03:29.354Z,512.4
2023-03-18T03:04:31.194Z,512.4
2023-03-18T03:05:33.155Z,512.4
2023-03-18T03:06:35.075Z,512.3
2023-03-18T03:07:37.065Z,512.3
2023-03-18T03:08:38.904Z,512.2
2023-03-18T03:09:40.757Z,512.3
2023-03-18T03:10:42.604Z,512.4
2023-03-18T03:11:44.447Z,512.1
2023-03-18T03:12:46.296Z,512
2023-03-18T03:13:48.087Z,511.9
2023-03-18T03:14:49.903Z,512.1
2023-03-18T03:15:52.151Z,511.5
2023-03-18T03:16:54.010Z,511.9
2023-03-18T03:17:55.890Z,512.1
2023-03-18T03:18:57.711Z,511.9
2023-03-18T03:19:59.565Z,512.2
2023-03-18T03:21:01.407Z,512.2
2023-03-18T03:22:03.361Z,512.2
2023-03-18T03:23:05.313Z,512
2023-03-18T03:24:07.269Z,511.8
2023-03-18T03:25:09.116Z,511.8
2023-03-18T03:26:11.062Z,511.5
2023-03-18T03:27:13.018Z,511.7
2023-03-18T03:28:14.946Z,511.4
2023-03-18T03:29:16.827Z,511.7
2023-03-18T03:30:18.674Z,511.6
2023-03-18T03:31:20.762Z,511.6
2023-03-18T03:32:22.679Z,511
2023-03-18T03:33:24.651Z,511.1
2023-03-18T03:34:26.580Z,510.9
2023-03-18T03:35:28.448Z,510.8
2023-03-18T03:36:30.390Z,510.5
2023-03-18T03:37:32.248Z,510.6
2023-03-18T03:38:34.099Z,510.7
2023-03-18T03:39:36.044Z,510.9
2023-03-18T03:40:37.885Z,510.7
2023-03-18T03:41:39.748Z,510.9
2023-03-18T03:42:41.586Z,510.9
2023-03-18T03:43:43.551Z,510.8
2023-03-18T03:44:45.489Z,510.9
2023-03-18T03:45:47.340Z,510.5
2023-03-18T03:46:49.620Z,510.7
2023-03-18T03:47:51.474Z,510.5
2023-03-18T03:48:53.425Z,510.7
2023-03-18T03:49:55.270Z,511
2023-03-18T03:50:57.117Z,511.3
2023-03-18T03:51:58.965Z,511.1
2023-03-18T03:53:00.802Z,511.1
2023-03-18T03:54:02.737Z,511.4
2023-03-18T03:55:04.604Z,511.3
2023-03-18T03:56:06.456Z,511.4
2023-03-18T03:57:08.315Z,511.3
2023-03-18T03:58:10.159Z,510.9
2023-03-18T03:59:12.007Z,510.9
2023-03-18T04:00:13.967Z,510.4
2023-03-18T04:01:15.807Z,510.4
2023-03-18T04:02:17.679Z,510
2023-03-18T04:03:19.517Z,510.1
2023-03-18T04:04:21.593Z,509.9
2023-03-18T04:05:23.553Z,510.1
2023-03-18T04:06:25.373Z,510.1
2023-03-18T04:07:27.167Z,510
2023-03-18T04:08:29.071Z,509.9
2023-03-18T04:09:30.935Z,510
2023-03-18T04:10:33.893Z,509.4
2023-03-18T04:11:35.956Z,509.4
2023-03-18T04:12:37.840Z,509
2023-03-18T04:13:39.643Z,509.1
2023-03-18T04:14:41.712Z,508.8
2023-03-18T04:15:43.959Z,508.5
2023-03-18T04:16:45.806Z,508.9
2023-03-18T04:17:47.968Z,508.7
2023-03-18T04:18:49.836Z,508.7
2023-03-18T04:19:51.903Z,508.5
2023-03-18T04:20:53.728Z,508.5
2023-03-18T04:21:55.680Z,508.4
2023-03-18T04:22:57.528Z,508.2
2023-03-18T04:23:59.476Z,508.1
2023-03-18T04:25:01.331Z,507.9
2023-03-18T04:26:03.172Z,507.7
2023-03-18T04:27:05.053Z,507.7
2023-03-18T04:28:06.875Z,507.3
2023-03-18T04:29:08.723Z,507.3
2023-03-18T04:30:10.468Z,506.9
2023-03-18T04:31:12.556Z,506.9
2023-03-18T04:32:14.490Z,506.9
2023-03-18T04:33:16.436Z,507.4
2023-03-18T04:34:18.280Z,507.1
2023-03-18T04:35:20.362Z,507.3
2023-03-18T04:36:22.120Z,506.8
2023-03-18T04:37:24.050Z,506.5
2023-03-18T04:38:25.893Z,506.4
2023-03-18T04:39:27.737Z,506.4
2023-03-18T04:40:29.931Z,506.3
2023-03-18T04:41:31.854Z,506.1
2023-03-18T04:42:33.712Z,506.5
2023-03-18T04:43:35.553Z,506.2
2023-03-18T04:44:37.405Z,506
2023-03-18T04:45:39.281Z,505.8
2023-03-18T04:46:41.372Z,506
2023-03-18T04:47:43.353Z,505.6
2023-03-18T04:48:45.208Z,505.5
2023-03-18T04:49:47.064Z,505.3
2023-03-18T04:50:48.912Z,505.3
2023-03-18T04:51:50.753Z,505.3
2023-03-18T04:52:52.704Z,505.5
2023-03-18T04:53:54.663Z,505.3
2023-03-18T04:54:56.840Z,505.4
2023-03-18T04:55:58.874Z,505.7
2023-03-18T04:57:00.728Z,505
2023-03-18T04:58:02.569Z,505.4
2023-03-18T04:59:04.430Z,505.4
2023-03-18T05:00:06.269Z,505.4
2023-03-18T05:01:08.479Z,505.1
2023-03-18T05:02:10.294Z,505.2
2023-03-18T05:03:12.229Z,505.1
2023-03-18T05:04:14.600Z,505.4
2023-03-18T05:05:16.546Z,505.8
2023-03-18T05:06:18.426Z,506.1
2023-03-18T05:07:20.291Z,506.1
2023-03-18T05:08:22.315Z,506.2
2023-03-18T05:09:24.159Z,506.1
2023-03-18T05:10:25.999Z,506.1
2023-03-18T05:11:27.956Z,506.2
2023-03-18T05:12:29.799Z,506.4
2023-03-18T05:13:31.755Z,506.2
2023-03-18T05:14:33.707Z,506.5
2023-03-18T05:15:35.567Z,506.9
2023-03-18T05:16:37.771Z,506.8
2023-03-18T05:17:39.677Z,506.6
2023-03-18T05:18:41.449Z,506.8
2023-03-18T05:19:43.274Z,507
2023-03-18T05:20:45.019Z,507.2
2023-03-18T05:21:46.994Z,507.1
2023-03-18T05:22:48.920Z,507.1
2023-03-18T05:23:50.663Z,506.9
2023-03-18T05:24:52.520Z,507.3
2023-03-18T05:25:54.362Z,507.2
2023-03-18T05:26:56.449Z,507.2
2023-03-18T05:27:58.372Z,507.1
2023-03-18T05:29:00.227Z,507.1
2023-03-18T05:30:02.137Z,507.3
2023-03-18T05:31:04.142Z,507.4
2023-03-18T05:32:06.149Z,507.7
2023-03-18T05:33:08.319Z,507.5
2023-03-18T05:34:10.187Z,507.5
2023-03-18T05:35:12.141Z,507.5
2023-03-18T05:36:14.126Z,507.1
2023-03-18T05:37:16.283Z,506.9
2023-03-18T05:38:18.107Z,507.1
2023-03-18T05:39:19.949Z,507
2023-03-18T05:40:21.911Z,507.4
2023-03-18T05:41:23.768Z,507.3
2023-03-18T05:42:25.703Z,507.4
2023-03-18T05:43:27.551Z,507.5
2023-03-18T05:44:29.421Z,507.2
2023-03-18T05:45:33.028Z,507.4
2023-03-18T05:46:35.044Z,507.2
2023-03-18T05:47:37.001Z,506.9
2023-03-18T05:48:39.063Z,507.3
2023-03-18T05:49:40.802Z,506.7
2023-03-18T05:50:42.661Z,506.7
2023-03-18T05:51:44.512Z,506.5
2023-03-18T05:52:46.474Z,506.6
2023-03-18T05:53:48.314Z,506.2
2023-03-18T05:54:50.279Z,506.6
2023-03-18T05:55:52.105Z,505.8
2023-03-18T05:56:53.863Z,505.8
2023-03-18T05:57:55.723Z,505.8
2023-03-18T05:58:57.662Z,505.7
2023-03-18T05:59:59.515Z,505.3
2023-03-18T06:01:01.468Z,505.8
2023-03-18T06:02:03.650Z,505.4
2023-03-18T06:03:05.882Z,505.3
2023-03-18T06:04:07.738Z,505.5
2023-03-18T06:05:09.581Z,505.2
2023-03-18T06:06:11.447Z,505.1
2023-03-18T06:07:13.395Z,505.4
2023-03-18T06:08:15.384Z,505.3
2023-03-18T06:09:17.288Z,505.3
2023-03-18T06:10:19.140Z,505.3
2023-03-18T06:11:20.991Z,505.4
2023-03-18T06:12:22.840Z,505.4
2023-03-18T06:13:24.698Z,505.5
2023-03-18T06:14:26.540Z,505.2
2023-03-18T06:15:28.500Z,505.4
2023-03-18T06:16:30.450Z,505.2
2023-03-18T06:17:32.303Z,505
2023-03-18T06:18:34.151Z,504.9
2023-03-18T06:19:35.944Z,504.7
2023-03-18T06:20:37.956Z,504.9
2023-03-18T06:21:39.806Z,504.8
2023-03-18T06:22:41.649Z,504.6
2023-03-18T06:23:43.528Z,504.8
2023-03-18T06:24:48.850Z,504.5
2023-03-18T06:25:50.891Z,505
2023-03-18T06:26:52.735Z,504.8
2023-03-18T06:27:54.581Z,505.1
2023-03-18T06:28:56.418Z,505.2
2023-03-18T06:29:58.293Z,505.3
2023-03-18T06:31:00.450Z,505.4
2023-03-18T06:32:02.394Z,505.5
2023-03-18T06:33:04.360Z,505.6
2023-03-18T06:34:06.297Z,505.6
2023-03-18T06:35:08.154Z,505.7
2023-03-18T06:36:10.228Z,505.7
2023-03-18T06:37:12.163Z,505.9
2023-03-18T06:38:14.004Z,506.5
2023-03-18T06:39:16.110Z,506.7
2023-03-18T06:40:18.230Z,506.7
2023-03-18T06:41:20.343Z,506.9
2023-03-18T06:42:22.232Z,507.1
2023-03-18T06:43:24.082Z,506.9
2023-03-18T06:44:26.239Z,507.4
2023-03-18T06:45:28.081Z,507
2023-03-18T06:46:30.223Z,506.8
2023-03-18T06:47:32.089Z,507.1
2023-03-18T06:48:33.937Z,506.9
2023-03-18T06:49:35.790Z,507
2023-03-18T06:50:37.640Z,507.1
2023-03-18T06:51:39.488Z,507.3
2023-03-18T06:52:41.353Z,506.9
2023-03-18T06:53:43.292Z,507
2023-03-18T06:54:45.273Z,506.7
2023-03-18T06:55:47.202Z,506.8
2023-03-18T06:56:49.046Z,506.6
2023-03-18T06:57:50.903Z,506.8
2023-03-18T06:58:52.767Z,507
2023-03-18T06:59:54.718Z,506.9
2023-03-18T07:00:56.690Z,507.1
2023-03-18T07:01:58.818Z,507.1
2023-03-18T07:03:00.776Z,507
2023-03-18T07:04:02.954Z,507.3
2023-03-18T07:05:05.082Z,507.5
2023-03-18T07:06:06.951Z,507.5
2023-03-18T07:07:08.863Z,507.5
2023-03-18T07:08:10.737Z,507.3
2023-03-18T07:09:12.608Z,507.4
2023-03-18T07:10:14.552Z,507.3
2023-03-18T07:11:16.486Z,507.1
2023-03-18T07:12:18.332Z,507
2023-03-18T07:13:20.182Z,507.1
2023-03-18T07:14:22.034Z,507.2
2023-03-18T07:15:23.935Z,507.2
2023-03-18T07:16:26.189Z,507.1
2023-03-18T07:17:28.095Z,507
2023-03-18T07:18:29.943Z,507
2023-03-18T07:19:31.795Z,507.2
2023-03-18T07:20:33.513Z,507.2
2023-03-18T07:21:35.392Z,507.4
2023-03-18T07:22:37.374Z,507.2
2023-03-18T07:23:39.206Z,507.2
2023-03-18T07:24:40.988Z,507.1
2023-03-18T07:25:43.024Z,506.8
2023-03-18T07:26:44.855Z,506.9
2023-03-18T07:27:46.702Z,506.9
2023-03-18T07:28:48.563Z,507.2
2023-03-18T07:29:50.395Z,506.8
2023-03-18T07:30:55.050Z,506.6
2023-03-18T07:31:56.868Z,506.8
2023-03-18T07:32:59.132Z,506.8
2023-03-18T07:34:01.084Z,506.5
2023-03-18T07:35:03.029Z,506.3
2023-03-18T07:36:04.911Z,506.6
2023-03-18T07:37:06.736Z,506.3
2023-03-18T07:38:08.672Z,506.5
2023-03-18T07:39:10.536Z,506.6
2023-03-18T07:40:12.493Z,506.9
2023-03-18T07:41:14.493Z,507
2023-03-18T07:42:16.394Z,506.3
2023-03-18T07:43:18.241Z,506.4
2023-03-18T07:44:20.093Z,506.2
2023-03-18T07:45:22.037Z,506.1
2023-03-18T07:46:24.178Z,505.9
2023-03-18T07:47:26.000Z,506.4
2023-03-18T07:48:27.893Z,506.5
2023-03-18T07:49:29.717Z,506.1
2023-03-18T07:50:31.703Z,506.1
2023-03-18T07:51:33.675Z,506.6
2023-03-18T07:52:35.606Z,506.4
2023-03-18T07:53:37.450Z,506.6
2023-03-18T07:54:39.172Z,506.6
2023-03-18T07:55:41.053Z,506.6
2023-03-18T07:56:43.244Z,506.5
2023-03-18T07:57:45.367Z,506.2
2023-03-18T07:58:47.223Z,506.2
2023-03-18T07:59:48.971Z,506.1
2023-03-18T08:00:50.814Z,506.3
2023-03-18T08:01:52.678Z,506.3
2023-03-18T08:02:54.523Z,506.7
2023-03-18T08:03:56.622Z,506.5
2023-03-18T08:04:58.815Z,506.8
2023-03-18T08:06:01.103Z,506.7
2023-03-18T08:07:03.066Z,507.2
2023-03-18T08:08:04.888Z,507.3
2023-03-18T08:09:06.751Z,507.4
2023-03-18T08:10:08.605Z,507.8
2023-03-18T08:11:10.462Z,507.7
2023-03-18T08:12:12.415Z,507.6
2023-03-18T08:13:14.260Z,507.1
2023-03-18T08:14:16.102Z,507.3
2023-03-18T08:15:17.957Z,506.9
2023-03-18T08:16:20.247Z,506.8
2023-03-18T08:17:22.152Z,506.6
2023-03-18T08:18:24.117Z,506.6
2023-03-18T08:19:25.896Z,506.6
2023-03-18T08:20:28.371Z,506.2
2023-03-18T08:21:30.376Z,506.3
2023-03-18T08:22:32.232Z,506.5
2023-03-18T08:23:34.181Z,506.2
2023-03-18T08:24:36.027Z,506.4
2023-03-18T08:25:37.783Z,506.1
2023-03-18T08:26:39.637Z,506.1
2023-03-18T08:27:41.600Z,506.3
2023-03-18T08:28:43.456Z,506.2
2023-03-18T08:29:45.236Z,506.3
2023-03-18T08:30:47.127Z,506.7
2023-03-18T08:31:49.174Z,506.1
2023-03-18T08:32:51.274Z,506.4
2023-03-18T08:33:53.289Z,506.7
2023-03-18T08:34:55.149Z,506.3
2023-03-18T08:35:57.248Z,506.8
2023-03-18T08:36:59.145Z,506.7
2023-03-18T08:38:01.099Z,506.6
2023-03-18T08:39:03.067Z,506.8
2023-03-18T08:40:05.020Z,506.6
2023-03-18T08:41:06.852Z,506.7
2023-03-18T08:42:08.710Z,506.8
2023-03-18T08:43:10.599Z,506.7
2023-03-18T08:44:12.516Z,506.3
2023-03-18T08:45:14.470Z,506.7
2023-03-18T08:46:16.648Z,506.6
2023-03-18T08:47:18.478Z,506.6
2023-03-18T08:48:20.317Z,506.9
2023-03-18T08:49:22.278Z,506.9
2023-03-18T08:50:24.049Z,506.8
2023-03-18T08:51:25.880Z,507.1
2023-03-18T08:52:27.715Z,506.8
2023-03-18T08:53:29.628Z,506.7
2023-03-18T08:54:31.634Z,506.8
2023-03-18T08:55:35.445Z,506.6
2023-03-18T08:56:37.476Z,506.7
2023-03-18T08:57:39.435Z,506.9
2023-03-18T08:58:41.318Z,506.5
2023-03-18T08:59:43.141Z,506.7
2023-03-18T09:00:45.395Z,506.4
2023-03-18T09:01:47.312Z,506.5
2023-03-18T09:02:49.205Z,506.3
2023-03-18T09:03:51.640Z,506.2
2023-03-18T09:04:53.505Z,506.2
2023-03-18T09:05:55.491Z,506.2
2023-03-18T09:06:57.485Z,506.2
2023-03-18T09:07:59.476Z,506.3
2023-03-18T09:09:01.567Z,506.4
2023-03-18T09:10:03.311Z,506.3
2023-03-18T09:11:05.127Z,506.2
2023-03-18T09:12:07.072Z,506.4
2023-03-18T09:13:08.927Z,506.6
2023-03-18T09:14:10.914Z,506.6
2023-03-18T09:15:12.732Z,506.5
2023-03-18T09:16:15.030Z,506.4
2023-03-18T09:17:16.938Z,506.5
2023-03-18T09:18:19.010Z,506.6
2023-03-18T09:19:20.842Z,506.1
2023-03-18T09:20:22.684Z,506.1
2023-03-18T09:21:24.454Z,506.1
2023-03-18T09:22:26.294Z,505.9
2023-03-18T09:23:28.134Z,505.9
2023-03-18T09:24:29.984Z,505.8
2023-03-18T09:25:33.202Z,506.1
2023-03-18T09:26:35.229Z,506.2
2023-03-18T09:27:37.179Z,506.1
2023-03-18T09:28:39.022Z,505.9
2023-03-18T09:29:41.022Z,506.1
2023-03-18T09:30:43.155Z,506.2
2023-03-18T09:31:45.096Z,506.6
2023-03-18T09:32:47.422Z,506.5
2023-03-18T09:33:49.398Z,506.6
2023-03-18T09:34:51.264Z,506
2023-03-18T09:35:53.243Z,506.5
2023-03-18T09:36:55.263Z,506.2
2023-03-18T09:37:57.113Z,506.4
2023-03-18T09:38:58.963Z,506.3
2023-03-18T09:40:00.741Z,506.4
2023-03-18T09:41:02.658Z,505.9
2023-03-18T09:42:04.606Z,506.1
2023-03-18T09:43:06.359Z,506.2
2023-03-18T09:44:08.213Z,506.3
2023-03-18T09:45:10.191Z,506.5
2023-03-18T09:46:12.536Z,506.7
2023-03-18T09:47:14.979Z,506.9
2023-03-18T09:48:17.004Z,506.9
2023-03-18T09:49:18.918Z,507
2023-03-18T09:50:20.951Z,506.8
2023-03-18T09:51:22.753Z,507.1
2023-03-18T09:52:24.758Z,507.1
2023-03-18T09:53:26.594Z,506.6
2023-03-18T09:54:28.453Z,506.7
2023-03-18T09:55:31.875Z,507.1
2023-03-18T09:56:33.821Z,506.7
2023-03-18T09:57:35.651Z,506.8
2023-03-18T09:58:37.492Z,506.8
2023-03-18T09:59:39.446Z,507.2
2023-03-18T10:00:41.554Z,506.8
2023-03-18T10:01:43.991Z,506.9
2023-03-18T10:02:45.914Z,507.3
2023-03-18T10:03:48.106Z,507.2
2023-03-18T10:04:50.040Z,506.8
2023-03-18T10:05:51.874Z,507.2
2023-03-18T10:06:53.655Z,507
2023-03-18T10:07:55.473Z,506.8
2023-03-18T10:08:57.421Z,506.8
2023-03-18T10:09:59.264Z,506.9
2023-03-18T10:11:01.014Z,506.9
2023-03-18T10:12:02.763Z,506.9
2023-03-18T10:13:04.497Z,506.8
2023-03-18T10:14:06.565Z,507.2
2023-03-18T10:15:08.513Z,506.9
2023-03-18T10:16:10.744Z,507.2
2023-03-18T10:17:12.624Z,507.2
2023-03-18T10:18:14.488Z,507.2
2023-03-18T10:19:16.334Z,506.9
2023-03-18T10:20:18.176Z,506.9
2023-03-18T10:21:20.026Z,507
2023-03-18T10:22:21.813Z,507.1
2023-03-18T10:23:23.530Z,507
2023-03-18T10:24:25.475Z,507.1
2023-03-18T10:25:27.440Z,507
2023-03-18T10:26:29.275Z,506.9
2023-03-18T10:27:31.137Z,507.4
2023-03-18T10:28:32.977Z,507.2
2023-03-18T10:29:34.843Z,507.2
2023-03-18T10:30:36.789Z,507.6
2023-03-18T10:31:39.017Z,507.5
2023-03-18T10:32:51.297Z,507.7
2023-03-18T10:33:53.186Z,507.6
2023-03-18T10:34:55.144Z,507.6
2023-03-18T10:36:00.012Z,507.4
2023-03-18T10:37:02.019Z,507.7
2023-03-18T10:38:03.965Z,507.8
2023-03-18T10:39:05.919Z,507.7
2023-03-18T10:40:07.769Z,507.4
2023-03-18T10:41:09.618Z,507.2
2023-03-18T10:42:11.487Z,507.2
2023-03-18T10:43:13.338Z,507.5
2023-03-18T10:44:15.177Z,507.3
2023-03-18T10:45:17.136Z,507.6
2023-03-18T10:46:19.391Z,507.3
2023-03-18T10:47:21.961Z,507.5
2023-03-18T10:48:24.002Z,507.6
2023-03-18T10:49:25.963Z,507.8
2023-03-18T10:50:27.883Z,507.8
2023-03-18T10:51:29.761Z,507.8
2023-03-18T10:52:31.608Z,508.1
2023-03-18T10:53:33.560Z,508.2
2023-03-18T10:54:35.421Z,508.5
2023-03-18T10:55:37.261Z,508.3
2023-03-18T10:56:39.220Z,508.2
2023-03-18T10:57:41.063Z,508.5
2023-03-18T10:58:42.928Z,508.7
2023-03-18T10:59:44.874Z,508.8
2023-03-18T11:00:46.829Z,508.7
2023-03-18T11:01:48.881Z,509.1
2023-03-18T11:02:51.115Z,509.3
2023-03-18T11:03:52.990Z,509.5
2023-03-18T11:04:54.837Z,509.4
2023-03-18T11:05:56.688Z,509.1
2023-03-18T11:06:58.545Z,509.1
2023-03-18T11:08:00.495Z,509.2
2023-03-18T11:09:02.342Z,509.5
2023-03-18T11:10:04.299Z,509.5
2023-03-18T11:11:06.144Z,509.4
2023-03-18T11:12:08.092Z,509.1
2023-03-18T11:13:09.949Z,509
2023-03-18T11:14:11.695Z,509.3
2023-03-18T11:15:13.569Z,509.1
2023-03-18T11:16:15.628Z,509.1
2023-03-18T11:17:17.451Z,509.1
2023-03-18T11:18:20.545Z,509.3
2023-03-18T11:19:22.472Z,509.3
2023-03-18T11:20:24.254Z,509.1
2023-03-18T11:21:26.083Z,509.1
2023-03-18T11:22:27.933Z,509.1
2023-03-18T11:23:29.875Z,509.2
2023-03-18T11:24:31.731Z,509.1
2023-03-18T11:25:33.584Z,509.1
2023-03-18T11:26:35.427Z,509.1
2023-03-18T11:27:37.275Z,509.4
2023-03-18T11:28:39.243Z,509.4
2023-03-18T11:29:41.190Z,509.8
2023-03-18T11:30:44.095Z,509.2
2023-03-18T11:31:46.250Z,509.7
2023-03-18T11:32:48.204Z,510
2023-03-18T11:33:50.136Z,509.8
2023-03-18T11:34:52.068Z,509.5
2023-03-18T11:35:54.407Z,509.6
2023-03-18T11:36:56.390Z,509.4
2023-03-18T11:37:58.241Z,509.8
2023-03-18T11:39:00.087Z,509.7
2023-03-18T11:40:01.998Z,509.9
2023-03-18T11:41:03.778Z,509.9
2023-03-18T11:42:05.632Z,509.7
2023-03-18T11:43:07.374Z,509.7
2023-03-18T11:44:09.334Z,509.7
2023-03-18T11:45:11.120Z,510.2
2023-03-18T11:46:12.940Z,510.5
2023-03-18T11:47:17.242Z,510.1
2023-03-18T11:48:19.217Z,510.8
2023-03-18T11:49:21.160Z,510.2
2023-03-18T11:50:22.990Z,511
2023-03-18T11:51:27.921Z,510.6
2023-03-18T11:52:29.705Z,510.4
2023-03-18T11:53:31.508Z,510.5
2023-03-18T11:54:33.462Z,510.6
2023-03-18T11:55:35.748Z,510.6
2023-03-18T11:56:37.583Z,510.8
2023-03-18T11:57:39.686Z,510.1
2023-03-18T11:58:41.431Z,510.6
2023-03-18T11:59:43.435Z,510.8
2023-03-18T12:00:45.283Z,510.9
2023-03-18T12:01:47.367Z,510.6
2023-03-18T12:02:49.127Z,510.6
2023-03-18T12:03:50.933Z,510.6
2023-03-18T12:04:53.233Z,510.7
2023-03-18T12:05:55.147Z,510.8
2023-03-18T12:06:57.097Z,510.3
2023-03-18T12:07:58.945Z,510.3
2023-03-18T12:09:01.931Z,509.8
2023-03-18T12:10:03.785Z,510.4
2023-03-18T12:11:05.621Z,510.3
2023-03-18T12:12:07.473Z,510.4
2023-03-18T12:13:09.335Z,510.7
2023-03-18T12:14:11.177Z,510
2023-03-18T12:15:12.955Z,510.6
2023-03-18T12:16:14.921Z,510.4
2023-03-18T12:17:16.827Z,509.7
2023-03-18T12:18:18.779Z,510.4
2023-03-18T12:19:20.628Z,510
2023-03-18T12:20:22.610Z,510.3
2023-03-18T12:21:24.456Z,510.2
2023-03-18T12:22:26.395Z,510.4
2023-03-18T12:23:28.233Z,510
2023-03-18T12:24:30.082Z,510.2
2023-03-18T12:25:32.055Z,510.2
2023-03-18T12:26:33.889Z,510.8
2023-03-18T12:27:35.751Z,510.7
2023-03-18T12:28:37.587Z,510.8
2023-03-18T12:29:39.458Z,510.6
2023-03-18T12:30:41.401Z,510.6
2023-03-18T12:31:43.446Z,510
2023-03-18T12:32:45.550Z,510.5
2023-03-18T12:33:47.557Z,510.2
2023-03-18T12:34:49.411Z,510.4
2023-03-18T12:35:51.617Z,510
2023-03-18T12:36:53.521Z,510.5
2023-03-18T12:37:55.373Z,510.7
2023-03-18T12:38:57.261Z,510.9
2023-03-18T12:39:59.110Z,510.8
2023-03-18T12:41:01.054Z,510.7
2023-03-18T12:42:02.766Z,510.5
2023-03-18T12:43:04.623Z,510.7
2023-03-18T12:44:06.465Z,510.7
2023-03-18T12:45:08.503Z,511
2023-03-18T12:46:10.800Z,510.7
2023-03-18T12:47:12.739Z,510.8
2023-03-18T12:48:14.600Z,510.9
2023-03-18T12:49:16.453Z,511.1
2023-03-18T12:50:18.423Z,511
2023-03-18T12:51:20.389Z,511.2
2023-03-18T12:52:22.197Z,510.8
2023-03-18T12:53:24.037Z,511
2023-03-18T12:54:25.770Z,510.7
2023-03-18T12:55:27.646Z,510.6
2023-03-18T12:56:29.430Z,510.8
2023-03-18T12:57:31.172Z,510.9
2023-03-18T12:58:32.991Z,511.1
2023-03-18T12:59:34.948Z,510.5
2023-03-18T13:00:37.544Z,510.8
2023-03-18T13:01:39.680Z,511.2
2023-03-18T13:02:41.785Z,510.9
2023-03-18T13:03:43.765Z,510.7
2023-03-18T13:04:45.621Z,510.7
2023-03-18T13:05:47.465Z,511.4
2023-03-18T13:06:49.455Z,511.1
2023-03-18T13:07:51.372Z,511
2023-03-18T13:08:53.221Z,511.3
2023-03-18T13:09:55.074Z,511
2023-03-18T13:10:56.931Z,511.2
2023-03-18T13:11:58.778Z,511
2023-03-18T13:13:00.655Z,510.7
2023-03-18T13:14:02.551Z,510.7
2023-03-18T13:15:04.431Z,511
2023-03-18T13:16:06.384Z,511.2
2023-03-18T13:17:08.329Z,511.5
2023-03-18T13:18:10.172Z,512
2023-03-18T13:19:11.941Z,511.7
2023-03-18T13:20:13.774Z,512.3
2023-03-18T13:21:15.917Z,511.9
2023-03-18T13:22:17.904Z,511.8